Time;durP1;ratioP1;P1;durP2;ratioP2;P2;SDS_P1;SDS_P2;PMS_P1;PMS_P2;Temp;Humidity;BMP_temperature;BMP_pressure;BME280_temperature;BME280_humidity;BME280_pressure;Samples;Min_cycle;Max_cycle;Signal;HPM_P1;HPM_P2
2021/04/20 00:00:32;;;;;;;37.17;18.00;;;;;;;5.08;100.00;96333.09;5057652;28;20204;-70
2021/04/20 00:02:58;;;;;;;36.00;17.67;;;;;;;5.05;100.00;96328.16;5056926;28;20201;-70
2021/04/20 00:05:24;;;;;;;38.17;18.83;;;;;;;5.06;100.00;96329.78;5056816;28;20205;-71
2021/04/20 00:07:50;;;;;;;34.47;16.60;;;;;;;4.91;100.00;96323.38;5057318;28;20230;-70
2021/04/20 00:10:19;;;;;;;36.03;18.43;;;;;;;5.05;100.00;96333.38;5056809;28;20274;-74
2021/04/20 00:12:47;;;;;;;40.40;17.90;;;;;;;5.05;100.00;96325.53;5054898;28;20702;-75
2021/04/20 00:15:30;;;;;;;42.30;18.60;;;;;;;5.00;100.00;96330.38;5056242;28;20257;-75
2021/04/20 00:17:58;;;;;;;37.70;18.47;;;;;;;5.03;100.00;96330.06;5056883;28;20232;-74
2021/04/20 00:20:25;;;;;;;38.60;19.07;;;;;;;5.19;100.00;96332.91;5056858;28;20245;-71
2021/04/20 00:22:51;;;;;;;43.13;19.37;;;;;;;5.25;100.00;96329.72;5057127;28;20207;-70
2021/04/20 00:25:17;;;;;;;40.03;18.93;;;;;;;5.31;100.00;96328.31;5055904;28;20204;-76
2021/04/20 00:27:44;;;;;;;36.87;18.90;;;;;;;5.28;100.00;96332.03;5057292;28;20224;-70
2021/04/20 00:30:11;;;;;;;39.70;20.33;;;;;;;5.29;100.00;96323.25;5056814;28;20591;-72
2021/04/20 00:32:39;;;;;;;42.77;20.00;;;;;;;5.33;100.00;96314.16;5057310;28;20223;-74
2021/04/20 00:35:06;;;;;;;42.67;19.20;;;;;;;5.42;100.00;96315.09;5055651;28;20574;-73
2021/04/20 00:37:33;;;;;;;44.87;20.87;;;;;;;5.36;100.00;96316.50;5057471;28;20228;-71
2021/04/20 00:39:59;;;;;;;33.87;15.87;;;;;;;5.08;100.00;96308.78;5056682;28;20211;-71
2021/04/20 00:42:26;;;;;;;35.17;17.13;;;;;;;5.05;100.00;96309.88;5056661;28;20951;-76
2021/04/20 00:44:52;;;;;;;35.70;16.73;;;;;;;5.03;100.00;96311.78;5056881;28;20200;-74
2021/04/20 00:47:18;;;;;;;40.03;19.13;;;;;;;5.03;100.00;96317.00;5056600;28;20227;-74
2021/04/20 00:49:45;;;;;;;38.70;18.23;;;;;;;4.99;100.00;96315.66;5055961;28;20228;-74
2021/04/20 00:52:11;;;;;;;39.90;18.90;;;;;;;4.97;100.00;96309.72;5055787;28;20204;-70
2021/04/20 00:54:37;;;;;;;42.00;19.77;;;;;;;5.01;100.00;96302.44;5056873;28;20250;-71
2021/04/20 00:57:03;;;;;;;37.87;17.97;;;;;;;5.06;100.00;96302.84;5055811;28;20224;-74
2021/04/20 00:59:29;;;;;;;30.30;15.93;;;;;;;4.91;100.00;96302.50;5056509;28;20262;-74
2021/04/20 01:01:55;;;;;;;37.20;16.53;;;;;;;4.96;100.00;96300.28;5056658;28;20204;-75
2021/04/20 01:04:21;;;;;;;31.17;15.60;;;;;;;4.93;100.00;96295.31;5056698;28;20215;-71
2021/04/20 01:06:49;;;;;;;40.47;17.90;;;;;;;5.01;100.00;96299.84;5055131;28;20227;-71
2021/04/20 01:09:16;;;;;;;38.17;16.93;;;;;;;4.84;100.00;96301.38;5056745;28;20597;-71
2021/04/20 01:11:43;;;;;;;35.77;17.23;;;;;;;4.81;100.00;96295.63;5056655;28;20216;-76
2021/04/20 01:14:09;;;;;;;37.40;17.60;;;;;;;4.76;100.00;96299.63;5054170;28;20258;-73
2021/04/20 01:16:36;;;;;;;38.93;19.37;;;;;;;4.72;100.00;96293.84;5055761;28;20228;-74
2021/04/20 01:19:03;;;;;;;37.80;19.03;;;;;;;4.86;100.00;96291.66;5057130;28;20201;-71
2021/04/20 01:21:30;;;;;;;44.63;19.17;;;;;;;4.98;100.00;96292.31;5055892;28;20686;-72
2021/04/20 01:24:02;;;;;;;37.30;18.77;;;;;;;4.97;100.00;96293.25;5056579;28;20208;-75
2021/04/20 01:26:31;;;;;;;41.87;19.90;;;;;;;5.03;100.00;96290.91;5055639;28;20224;-71
2021/04/20 01:28:57;;;;;;;38.10;18.30;;;;;;;5.06;100.00;96289.78;5056902;28;20221;-74
2021/04/20 01:31:26;;;;;;;41.93;20.00;;;;;;;4.90;100.00;96293.00;5055949;28;20209;-73
2021/04/20 01:33:52;;;;;;;36.73;18.30;;;;;;;4.84;100.00;96295.34;5056284;28;20591;-72
2021/04/20 01:36:20;;;;;;;40.83;19.67;;;;;;;4.93;100.00;96292.72;5055319;28;20201;-75
2021/04/20 01:38:47;;;;;;;39.10;19.80;;;;;;;4.85;100.00;96291.78;5056471;28;20200;-72
2021/04/20 01:41:15;;;;;;;40.80;18.77;;;;;;;5.02;100.00;96293.66;5056021;28;20208;-75
2021/04/20 01:43:42;;;;;;;45.90;20.53;;;;;;;5.05;100.00;96291.59;5056178;28;20681;-71
2021/04/20 01:46:08;;;;;;;42.87;19.43;;;;;;;5.15;100.00;96294.97;5055471;28;20281;-72
2021/04/20 01:48:34;;;;;;;44.93;20.57;;;;;;;5.16;100.00;96290.59;5056071;28;20838;-72
2021/04/20 01:51:01;;;;;;;41.67;20.17;;;;;;;5.04;100.00;96289.94;5056533;28;20208;-70
2021/04/20 01:53:28;;;;;;;43.37;20.20;;;;;;;5.02;100.00;96296.28;5055981;28;20212;-76
2021/04/20 01:55:57;;;;;;;44.73;19.73;;;;;;;5.10;100.00;96301.59;5055228;28;20957;-71
2021/04/20 01:58:24;;;;;;;43.10;19.83;;;;;;;5.13;100.00;96296.91;5056275;28;20228;-73
2021/04/20 02:00:52;;;;;;;36.00;18.30;;;;;;;5.12;100.00;96299.69;5055836;28;20205;-71
2021/04/20 02:03:18;;;;;;;35.13;16.33;;;;;;;5.10;100.00;96306.81;5056665;28;20670;-74
2021/04/20 02:05:44;;;;;;;37.30;17.50;;;;;;;5.08;100.00;96299.13;5058913;28;20204;-70
2021/04/20 02:08:10;;;;;;;43.40;19.47;;;;;;;5.10;100.00;96297.19;5059242;28;20232;-73
2021/04/20 02:10:37;;;;;;;48.17;20.60;;;;;;;5.12;100.00;96290.03;5059409;28;20220;-73
2021/04/20 02:13:03;;;;;;;47.20;21.73;;;;;;;5.07;100.00;96294.88;5056961;28;20704;-70
2021/04/20 02:15:29;;;;;;;48.97;21.57;;;;;;;5.06;100.00;96292.41;5058823;28;20205;-73
2021/04/20 02:17:57;;;;;;;45.00;19.47;;;;;;;5.07;100.00;96297.47;5059123;28;20713;-70
2021/04/20 02:20:24;;;;;;;40.83;20.37;;;;;;;5.24;100.00;96303.75;5059782;28;20208;-75
2021/04/20 02:22:51;;;;;;;44.10;20.97;;;;;;;5.25;100.00;96298.38;5058985;28;20269;-76
2021/04/20 02:25:18;;;;;;;44.07;21.10;;;;;;;5.29;100.00;96302.34;5058609;28;20216;-76
2021/04/20 02:27:45;;;;;;;46.20;21.67;;;;;;;5.41;100.00;96293.38;5058609;28;20698;-70
2021/04/20 02:30:13;;;;;;;41.27;19.50;;;;;;;5.46;100.00;96296.38;5059249;28;20204;-71
2021/04/20 02:32:40;;;;;;;41.90;20.10;;;;;;;5.41;100.00;96297.75;5058846;28;20200;-75
2021/04/20 02:35:10;;;;;;;39.90;19.47;;;;;;;5.38;100.00;96292.84;5058331;28;20329;-71
2021/04/20 02:37:36;;;;;;;39.20;18.30;;;;;;;5.29;100.00;96294.50;5059146;28;20293;-71
2021/04/20 02:40:03;;;;;;;37.87;18.37;;;;;;;5.35;100.00;96288.72;5058498;28;20201;-72
2021/04/20 02:42:32;;;;;;;43.00;20.60;;;;;;;5.38;100.00;96285.81;5058946;28;20720;-72
2021/04/20 02:45:00;;;;;;;38.03;19.47;;;;;;;5.21;100.00;96288.38;5058746;28;20222;-73
2021/04/20 02:47:27;;;;;;;44.17;19.80;;;;;;;5.38;100.00;96283.19;5058334;28;20224;-72
2021/04/20 02:49:53;;;;;;;43.50;19.97;;;;;;;5.30;100.00;96280.50;5058294;28;20224;-72
2021/04/20 02:52:21;;;;;;;45.17;20.17;;;;;;;5.24;100.00;96283.66;5059356;28;20208;-72
2021/04/20 02:54:47;;;;;;;41.23;19.43;;;;;;;5.10;100.00;96281.50;5055340;28;20201;-74
2021/04/20 02:57:14;;;;;;;36.30;18.97;;;;;;;5.03;100.00;96284.88;5057435;28;20235;-71
2021/04/20 02:59:42;;;;;;;43.20;20.40;;;;;;;4.89;100.00;96278.28;5058803;28;20200;-75
2021/04/20 03:02:10;;;;;;;48.60;21.10;;;;;;;4.92;100.00;96283.22;5059044;28;20235;-71
2021/04/20 03:04:36;;;;;;;42.43;19.03;;;;;;;5.10;100.00;96280.72;5057630;28;20261;-74
2021/04/20 03:07:03;;;;;;;39.20;18.63;;;;;;;5.08;100.00;96278.25;5057497;28;20659;-75
2021/04/20 03:09:30;;;;;;;35.13;18.83;;;;;;;5.16;100.00;96278.34;5059715;28;20315;-72
2021/04/20 03:11:58;;;;;;;35.23;17.80;;;;;;;5.13;100.00;96280.41;5057952;28;20212;-74
2021/04/20 03:14:25;;;;;;;51.93;23.47;;;;;;;5.05;100.00;96281.16;5056881;28;20212;-73
2021/04/20 03:16:51;;;;;;;75.23;32.10;;;;;;;5.08;100.00;96272.22;5057676;28;21351;-75
2021/04/20 03:19:18;;;;;;;64.70;29.87;;;;;;;5.04;100.00;96270.81;5058327;28;20209;-70
2021/04/20 03:21:46;;;;;;;56.20;25.67;;;;;;;5.13;100.00;96277.78;5057218;28;20671;-70
2021/04/20 03:24:39;;;;;;;40.23;19.73;;;;;;;5.12;100.00;96279.59;5058382;28;20208;-75
2021/04/20 03:27:07;;;;;;;49.70;21.60;;;;;;;5.31;100.00;96276.06;5056076;28;20225;-73
2021/04/20 03:29:34;;;;;;;46.47;21.27;;;;;;;5.31;100.00;96268.22;5057511;28;20232;-72
2021/04/20 03:32:00;;;;;;;47.23;21.73;;;;;;;5.24;100.00;96267.19;5057860;28;21036;-72
2021/04/20 03:34:31;;;;;;;46.23;21.30;;;;;;;5.32;100.00;96270.72;5058556;28;20325;-71
2021/04/20 03:37:01;;;;;;;45.47;21.67;;;;;;;5.31;100.00;96269.06;5056558;28;20314;-75
2021/04/20 03:39:29;;;;;;;50.33;22.20;;;;;;;5.26;100.00;96262.66;5058398;28;20211;-72
2021/04/20 03:41:59;;;;;;;48.80;22.67;;;;;;;5.34;100.00;96260.94;5057623;28;20215;-74
2021/04/20 03:44:29;;;;;;;46.93;22.53;;;;;;;5.43;100.00;96260.06;5058278;28;20722;-73
2021/04/20 03:47:00;;;;;;;52.80;22.30;;;;;;;5.33;100.00;96261.91;5056677;28;20232;-76
2021/04/20 03:49:30;;;;;;;45.07;21.60;;;;;;;5.28;100.00;96264.13;5057767;28;20257;-76
2021/04/20 03:51:58;;;;;;;48.00;22.20;;;;;;;5.39;100.00;96266.56;5057284;28;20205;-75
2021/04/20 03:54:26;;;;;;;43.27;20.90;;;;;;;5.44;100.00;96259.09;5057700;28;20209;-72
2021/04/20 03:56:55;;;;;;;48.77;21.20;;;;;;;5.41;100.00;96258.56;5056078;28;20703;-76
2021/04/20 03:59:24;;;;;;;52.13;23.67;;;;;;;5.44;100.00;96254.69;5057815;28;20304;-74
2021/04/20 04:01:51;;;;;;;65.73;27.60;;;;;;;5.44;100.00;96259.09;5057538;28;20218;-72
2021/04/20 04:04:19;;;;;;;61.30;27.90;;;;;;;5.40;100.00;96262.97;5057584;28;20204;-70
2021/04/20 04:06:46;;;;;;;57.83;27.50;;;;;;;5.37;100.00;96263.25;5055958;28;20240;-70
2021/04/20 04:09:14;;;;;;;51.40;24.00;;;;;;;5.35;100.00;96267.81;5057203;28;20232;-72
2021/04/20 04:11:47;;;;;;;46.57;23.47;;;;;;;5.26;100.00;96265.25;5057007;28;20223;-74
2021/04/20 04:14:15;;;;;;;54.40;24.83;;;;;;;5.39;100.00;96258.72;5056894;28;20216;-75
2021/04/20 04:16:45;;;;;;;52.63;24.23;;;;;;;5.44;100.00;96266.94;5056829;28;20265;-72
2021/04/20 04:19:14;;;;;;;44.73;22.97;;;;;;;5.48;100.00;96265.69;5057280;28;20212;-71
2021/04/20 04:21:45;;;;;;;46.73;21.50;;;;;;;5.50;100.00;96263.75;5056854;28;20264;-74
2021/04/20 04:24:13;;;;;;;47.67;21.90;;;;;;;5.61;100.00;96260.94;5057270;28;20215;-71
2021/04/20 04:26:43;;;;;;;53.17;22.87;;;;;;;5.58;100.00;96261.25;5055950;28;20344;-72
2021/04/20 04:29:13;;;;;;;80.07;29.47;;;;;;;5.52;100.00;96253.97;5056615;28;20343;-74
2021/04/20 04:31:43;;;;;;;69.13;27.00;;;;;;;5.52;100.00;96256.59;5058163;28;20210;-71
2021/04/20 04:34:10;;;;;;;53.53;23.70;;;;;;;5.58;100.00;96256.81;5056930;28;20254;-74
2021/04/20 04:36:39;;;;;;;54.23;23.63;;;;;;;5.60;100.00;96259.28;5056206;28;20224;-71
2021/04/20 04:39:06;;;;;;;53.00;24.73;;;;;;;5.61;100.00;96258.31;5056994;28;20685;-70
2021/04/20 04:41:33;;;;;;;66.83;27.90;;;;;;;5.48;100.00;96255.22;5056641;28;20212;-73
2021/04/20 04:44:00;;;;;;;82.30;29.77;;;;;;;5.40;100.00;96264.75;5056712;28;20674;-71
2021/04/20 04:46:26;;;;;;;76.70;29.37;;;;;;;5.41;100.00;96261.19;5056190;28;20309;-72
2021/04/20 04:48:53;;;;;;;61.13;26.80;;;;;;;5.47;100.00;96269.25;5056227;28;20725;-71
2021/04/20 04:51:21;;;;;;;76.47;28.83;;;;;;;5.47;100.00;96269.25;5057524;28;20204;-72
2021/04/20 04:53:49;;;;;;;138.67;48.67;;;;;;;5.44;100.00;96269.56;5056411;28;20257;-71
2021/04/20 04:56:18;;;;;;;92.23;41.27;;;;;;;5.43;100.00;96280.97;5055890;28;20200;-71
2021/04/20 04:58:46;;;;;;;65.47;28.70;;;;;;;5.51;100.00;96275.84;5056900;28;20197;-71
2021/04/20 05:01:13;;;;;;;67.43;27.80;;;;;;;5.60;100.00;96272.34;5056764;28;20715;-74
2021/04/20 05:03:39;;;;;;;65.87;26.43;;;;;;;5.63;100.00;96270.28;5056417;28;20197;-71
2021/04/20 05:06:07;;;;;;;59.93;24.90;;;;;;;5.67;100.00;96270.81;5056335;28;20201;-72
2021/04/20 05:08:34;;;;;;;51.73;24.40;;;;;;;5.67;100.00;96262.97;5056093;28;20239;-75
2021/04/20 05:11:04;;;;;;;50.30;24.70;;;;;;;5.66;100.00;96274.38;5056898;28;20222;-73
2021/04/20 05:13:30;;;;;;;50.07;23.50;;;;;;;5.69;100.00;96279.31;5056010;28;20208;-72
2021/04/20 05:15:57;;;;;;;56.53;25.80;;;;;;;5.70;100.00;96278.34;5055798;28;20200;-74
2021/04/20 05:18:26;;;;;;;58.00;25.97;;;;;;;5.75;100.00;96273.50;5056251;28;20224;-71
2021/04/20 05:20:53;;;;;;;49.80;23.97;;;;;;;5.71;100.00;96272.16;5056443;28;20671;-75
2021/04/20 05:23:19;;;;;;;48.27;23.87;;;;;;;5.74;100.00;96272.69;5056530;28;20215;-70
2021/04/20 05:25:45;;;;;;;44.57;22.73;;;;;;;5.72;100.00;96272.00;5055551;28;21153;-73
2021/04/20 05:28:12;;;;;;;49.10;23.27;;;;;;;5.70;100.00;96273.97;5055886;28;20343;-74
2021/04/20 05:30:38;;;;;;;48.20;22.97;;;;;;;5.77;100.00;96274.22;5056904;28;20204;-74
2021/04/20 05:33:05;;;;;;;47.43;21.93;;;;;;;5.75;100.00;96278.75;5056102;28;21049;-75
2021/04/20 05:35:31;;;;;;;47.00;21.43;;;;;;;5.76;100.00;96280.41;5055349;28;20670;-71
2021/04/20 05:37:57;;;;;;;42.07;20.93;;;;;;;5.76;100.00;96275.19;5057119;28;20277;-71
2021/04/20 05:40:26;;;;;;;45.37;22.17;;;;;;;5.65;100.00;96276.19;5060640;28;20295;-71
2021/04/20 05:42:52;;;;;;;43.47;20.77;;;;;;;5.63;100.00;96274.69;5060048;28;20233;-71
2021/04/20 05:45:19;;;;;;;43.50;21.43;;;;;;;5.66;100.00;96275.19;5058656;28;20815;-74
2021/04/20 05:47:47;;;;;;;43.50;21.43;;;;;;;5.74;100.00;96274.47;5060154;28;20314;-72
2021/04/20 05:50:18;;;;;;;54.57;22.87;;;;;;;5.70;100.00;96278.34;5059937;28;20224;-70
2021/04/20 05:52:45;;;;;;;51.43;24.67;;;;;;;5.65;100.00;96278.81;5059975;28;20208;-71
2021/04/20 05:55:12;;;;;;;50.80;24.77;;;;;;;5.65;100.00;96278.81;5058757;28;20300;-72
2021/04/20 05:57:38;;;;;;;46.63;23.30;;;;;;;5.62;100.00;96279.06;5059057;28;20224;-71
2021/04/20 06:00:06;;;;;;;54.10;25.00;;;;;;;5.63;100.00;96279.91;5058801;28;20670;-71
2021/04/20 06:02:36;;;;;;;56.30;26.83;;;;;;;5.62;100.00;96283.50;5059859;28;20676;-72
2021/04/20 06:05:07;;;;;;;64.20;28.67;;;;;;;5.70;100.00;96284.41;5058209;28;20258;-74
2021/04/20 06:07:35;;;;;;;50.73;25.17;;;;;;;5.74;100.00;96282.31;5059170;28;20227;-71
2021/04/20 06:10:04;;;;;;;51.67;26.50;;;;;;;5.69;100.00;96284.53;5058936;28;20618;-71
2021/04/20 06:12:31;;;;;;;55.87;23.77;;;;;;;5.77;100.00;96284.69;5060096;28;20299;-71
2021/04/20 06:14:57;;;;;;;54.93;25.90;;;;;;;5.83;100.00;96279.69;5058243;28;20200;-71
2021/04/20 06:17:23;;;;;;;61.07;28.23;;;;;;;5.82;100.00;96280.66;5058001;28;20227;-71
2021/04/20 06:19:51;;;;;;;57.03;25.53;;;;;;;5.87;100.00;96277.59;5058911;28;20538;-73
2021/04/20 06:22:18;;;;;;;50.53;24.07;;;;;;;5.96;100.00;96279.31;5058488;28;20582;-71
2021/04/20 06:24:45;;;;;;;57.83;24.90;;;;;;;6.00;100.00;96283.31;5058320;28;20212;-71
2021/04/20 06:27:13;;;;;;;54.07;23.97;;;;;;;6.01;100.00;96285.75;5058530;28;20247;-71
2021/04/20 06:29:39;;;;;;;55.90;24.77;;;;;;;6.09;100.00;96285.84;5058580;28;20224;-73
2021/04/20 06:32:06;;;;;;;47.77;22.67;;;;;;;6.06;100.00;96291.38;5058388;28;20207;-70
2021/04/20 06:34:33;;;;;;;53.43;23.47;;;;;;;6.07;100.00;96295.63;5058526;28;20200;-75
2021/04/20 06:37:00;;;;;;;48.63;23.70;;;;;;;6.01;100.00;96288.38;5057116;28;20224;-70
2021/04/20 06:39:27;;;;;;;49.57;24.20;;;;;;;6.04;100.00;96290.69;5058572;28;20337;-71
2021/04/20 06:41:56;;;;;;;56.30;25.13;;;;;;;6.04;100.00;96287.25;5058829;28;20208;-74
2021/04/20 06:44:25;;;;;;;57.53;25.73;;;;;;;6.10;100.00;96296.16;5058370;28;20257;-71
2021/04/20 06:46:54;;;;;;;50.20;24.43;;;;;;;6.26;100.00;96290.25;5057434;28;20224;-71
2021/04/20 06:49:24;;;;;;;54.93;24.23;;;;;;;6.29;100.00;96300.44;5057351;28;20259;-74
2021/04/20 06:51:56;;;;;;;58.23;27.30;;;;;;;6.44;100.00;96297.13;5058594;28;20216;-73
2021/04/20 06:54:28;;;;;;;54.73;24.40;;;;;;;6.53;100.00;96300.63;5058946;28;20235;-70
2021/04/20 06:57:02;;;;;;;51.37;24.73;;;;;;;6.62;100.00;96303.19;5057557;28;20342;-74
2021/04/20 06:59:36;;;;;;;57.07;24.93;;;;;;;6.71;100.00;96299.66;5058427;28;20205;-70
2021/04/20 07:02:09;;;;;;;52.33;25.37;;;;;;;6.95;100.00;96297.19;5055386;28;20398;-71
2021/04/20 07:04:43;;;;;;;51.57;25.40;;;;;;;7.19;100.00;96302.59;5055331;28;20609;-74
2021/04/20 07:07:34;;;;;;;45.37;23.67;;;;;;;7.26;100.00;96294.75;5054675;28;20235;-71
2021/04/20 07:10:07;;;;;;;50.90;23.87;;;;;;;7.39;100.00;96299.59;5056049;28;20220;-72
2021/04/20 07:12:35;;;;;;;53.27;24.63;;;;;;;7.34;100.00;96301.84;5055757;28;20250;-72
2021/04/20 07:15:03;;;;;;;47.27;24.13;;;;;;;7.59;100.00;96295.75;5055961;28;20674;-71
2021/04/20 07:17:45;;;;;;;50.40;23.67;;;;;;;7.63;100.00;96300.53;5057375;28;20236;-71
2021/04/20 07:20:28;;;;;;;45.03;21.47;;;;;;;7.66;100.00;96294.16;5057561;28;20621;-72
2021/04/20 07:23:19;;;;;;;47.47;22.47;;;;;;;7.41;100.00;96295.03;5056656;28;20204;-73
2021/04/20 07:26:15;;;;;;;44.63;22.87;;;;;;;7.71;100.00;96297.13;5057942;28;20204;-71
2021/04/20 07:28:53;;;;;;;48.83;23.30;;;;;;;7.79;100.00;96295.34;5056767;28;20228;-71
2021/04/20 07:31:29;;;;;;;44.67;23.07;;;;;;;7.90;100.00;96297.66;5057027;28;20888;-72
2021/04/20 07:34:09;;;;;;;49.00;23.17;;;;;;;8.04;100.00;96297.91;5057597;28;20654;-71
2021/04/20 07:36:47;;;;;;;49.83;23.03;;;;;;;7.89;100.00;96299.50;5056011;28;20224;-73
2021/04/20 07:39:18;;;;;;;45.00;22.37;;;;;;;7.93;100.00;96302.63;5056868;28;20581;-74
2021/04/20 07:41:51;;;;;;;49.63;24.07;;;;;;;7.93;100.00;96300.81;5056802;28;20262;-72
2021/04/20 07:44:23;;;;;;;45.77;24.60;;;;;;;8.04;100.00;96297.06;5056998;28;20205;-71
2021/04/20 07:46:53;;;;;;;49.17;23.93;;;;;;;8.28;100.00;96289.28;5056749;28;20234;-71
2021/04/20 07:49:26;;;;;;;48.40;23.90;;;;;;;8.36;100.00;96290.09;5056785;28;20263;-73
2021/04/20 07:52:02;;;;;;;44.17;23.07;;;;;;;8.53;100.00;96295.22;5057041;28;20427;-71
2021/04/20 07:54:46;;;;;;;44.13;22.37;;;;;;;8.59;100.00;96289.31;5057414;28;20354;-75
2021/04/20 07:57:23;;;;;;;43.43;22.77;;;;;;;8.18;100.00;96281.53;5056513;28;20709;-70
2021/04/20 07:59:56;;;;;;;47.23;23.17;;;;;;;8.29;100.00;96285.69;5056223;28;20220;-73
2021/04/20 08:02:31;;;;;;;47.20;21.47;;;;;;;8.44;100.00;96282.25;5056674;28;20212;-71
2021/04/20 08:05:02;;;;;;;43.50;21.63;;;;;;;8.57;100.00;96286.00;5056992;28;20571;-71
2021/04/20 08:07:38;;;;;;;47.70;23.63;;;;;;;8.79;100.00;96280.09;5056556;28;20220;-72
2021/04/20 08:10:08;;;;;;;44.83;21.87;;;;;;;8.92;100.00;96280.41;5056134;28;20234;-71
2021/04/20 08:12:47;;;;;;;42.80;20.67;;;;;;;9.07;100.00;96280.59;5056551;28;20295;-71
2021/04/20 08:15:18;;;;;;;41.60;21.87;;;;;;;9.16;100.00;96283.03;5055155;28;20209;-74
2021/04/20 08:17:50;;;;;;;39.87;21.20;;;;;;;9.08;100.00;96283.03;5056240;28;20744;-70
2021/04/20 08:20:21;;;;;;;45.87;23.13;;;;;;;9.28;100.00;96290.41;5056384;28;20695;-71
2021/04/20 08:22:50;;;;;;;44.90;21.50;;;;;;;9.47;100.00;96276.03;5056150;28;20604;-74
2021/04/20 08:25:21;;;;;;;42.33;21.13;;;;;;;9.66;100.00;96276.47;5055837;28;20212;-71
2021/04/20 08:27:56;;;;;;;44.60;20.97;;;;;;;9.88;99.56;96276.53;5056331;28;20228;-71
2021/04/20 08:30:31;;;;;;;43.77;20.57;;;;;;;9.98;99.59;96271.91;5055363;28;21135;-70
2021/04/20 08:32:58;;;;;;;42.53;21.70;;;;;;;10.23;100.00;96275.22;5056560;28;20681;-71
2021/04/20 08:35:28;;;;;;;42.57;20.70;;;;;;;10.09;95.65;96273.34;5056244;28;20480;-71
2021/04/20 08:38:07;;;;;;;43.23;21.27;;;;;;;9.94;99.76;96270.59;5056355;28;20224;-71
2021/04/20 08:40:41;;;;;;;48.27;23.17;;;;;;;10.35;100.00;96272.03;5055997;28;20196;-74
2021/04/20 08:43:23;;;;;;;40.93;21.10;;;;;;;10.61;97.95;96277.75;5056633;28;20211;-73
2021/04/20 08:45:57;;;;;;;41.80;20.40;;;;;;;10.99;94.50;96275.78;5055044;28;20266;-71
2021/04/20 08:48:30;;;;;;;46.53;22.03;;;;;;;11.02;92.06;96270.19;5056131;28;20220;-70
2021/04/20 08:51:01;;;;;;;44.93;20.63;;;;;;;11.17;90.18;96270.19;5056337;28;20209;-74
2021/04/20 08:53:42;;;;;;;42.67;20.97;;;;;;;10.97;91.91;96261.13;5056345;28;20902;-71
2021/04/20 08:56:13;;;;;;;40.30;20.47;;;;;;;10.87;90.31;96270.31;5054724;28;20208;-71
2021/04/20 08:59:10;;;;;;;39.90;19.63;;;;;;;11.08;88.89;96271.25;5056008;28;20208;-71
2021/04/20 09:01:46;;;;;;;37.50;18.73;;;;;;;11.10;88.02;96267.44;5055769;28;20200;-73
2021/04/20 09:04:31;;;;;;;35.97;18.23;;;;;;;11.28;85.21;96269.75;5056085;28;20203;-72
2021/04/20 09:07:03;;;;;;;36.17;17.80;;;;;;;11.50;86.27;96261.78;5054522;28;20230;-73
2021/04/20 09:09:32;;;;;;;35.03;16.90;;;;;;;11.78;82.52;96262.78;5055870;28;20714;-71
2021/04/20 09:12:01;;;;;;;32.25;16.52;;;;;;;11.97;83.68;96267.50;5055068;28;20799;-74
2021/04/20 09:14:34;;;;;;;42.70;18.83;;;;;;;12.30;80.57;96265.03;5059566;28;20200;-71
2021/04/20 09:17:04;;;;;;;42.15;19.65;;;;;;;12.45;78.52;96263.19;5059033;28;20729;-72
2021/04/20 09:19:34;;;;;;;40.35;19.05;;;;;;;12.66;78.49;96268.47;5060125;28;20559;-71
2021/04/20 09:22:11;;;;;;;34.85;18.75;;;;;;;12.86;82.32;96267.66;5059480;28;20211;-71
2021/04/20 09:24:43;;;;;;;35.17;17.87;;;;;;;12.72;80.23;96269.56;5059992;28;20249;-73
2021/04/20 09:27:15;;;;;;;35.40;16.90;;;;;;;12.80;77.93;96273.72;5058763;28;20630;-75
2021/04/20 09:29:49;;;;;;;35.83;18.38;;;;;;;12.84;79.78;96264.38;5059627;28;20220;-73
2021/04/20 09:32:20;;;;;;;34.63;17.20;;;;;;;12.83;76.21;96264.59;5059555;28;20200;-71
2021/04/20 09:34:49;;;;;;;33.00;17.90;;;;;;;12.93;77.69;96257.16;5059437;28;20209;-70
2021/04/20 09:37:16;;;;;;;33.65;17.10;;;;;;;13.12;76.16;96256.50;5058356;28;20224;-71
2021/04/20 09:39:44;;;;;;;30.23;16.40;;;;;;;13.26;71.12;96259.03;5060333;28;20455;-73
2021/04/20 09:42:13;;;;;;;30.50;15.35;;;;;;;13.61;70.72;96256.22;5059303;28;20619;-74
2021/04/20 09:44:46;;;;;;;31.48;16.58;;;;;;;13.79;72.87;96256.53;5059344;28;20624;-71
2021/04/20 09:47:23;;;;;;;31.58;16.38;;;;;;;13.96;79.63;96243.78;5058170;28;20220;-70
2021/04/20 09:50:02;;;;;;;32.67;16.80;;;;;;;14.18;74.91;96248.81;5059885;28;20393;-76
2021/04/20 09:52:39;;;;;;;31.48;16.73;;;;;;;13.92;70.91;96248.66;5058409;28;20585;-74
2021/04/20 09:55:11;;;;;;;31.67;17.08;;;;;;;14.16;67.90;96254.28;5059010;28;20656;-75
2021/04/20 09:57:42;;;;;;;32.10;17.92;;;;;;;13.77;68.91;96253.28;5059442;28;20224;-75
2021/04/20 10:00:14;;;;;;;33.78;17.73;;;;;;;13.54;70.95;96250.09;5058953;28;20980;-71
2021/04/20 10:02:49;;;;;;;32.30;16.98;;;;;;;13.96;71.60;96246.44;5058323;28;20208;-74
2021/04/20 10:05:20;;;;;;;31.13;17.75;;;;;;;14.31;71.04;96252.31;5058497;28;20207;-71
2021/04/20 10:08:05;;;;;;;33.45;17.27;;;;;;;14.08;66.53;96257.13;5058352;28;20227;-73
2021/04/20 10:10:43;;;;;;;30.70;16.67;;;;;;;14.33;67.21;96241.50;5060189;28;20220;-71
2021/04/20 10:13:23;;;;;;;29.42;16.70;;;;;;;14.32;64.54;96253.09;5059239;28;20581;-71
2021/04/20 10:16:00;;;;;;;36.35;17.05;;;;;;;14.25;65.44;96252.28;5057959;28;20208;-72
2021/04/20 10:18:36;;;;;;;34.20;17.33;;;;;;;14.02;69.23;96247.25;5058396;28;20228;-72
2021/04/20 10:21:10;;;;;;;31.63;17.08;;;;;;;13.64;69.15;96245.25;5059130;28;20859;-73
2021/04/20 10:23:47;;;;;;;29.30;17.23;;;;;;;14.11;74.67;96240.81;5058278;28;20571;-71
2021/04/20 10:26:21;;;;;;;33.67;17.08;;;;;;;13.98;68.51;96232.78;5057555;28;20204;-72
2021/04/20 10:28:54;;;;;;;34.05;17.35;;;;;;;13.79;68.49;96232.69;5057809;28;20661;-71
2021/04/20 10:31:29;;;;;;;28.45;16.95;;;;;;;13.54;71.71;96230.72;5058758;28;20594;-74
2021/04/20 10:33:55;;;;;;;31.63;17.95;;;;;;;13.40;69.67;96240.44;5057862;28;20204;-75
2021/04/20 10:36:23;;;;;;;31.17;17.65;;;;;;;13.40;68.24;96235.13;5057610;28;20204;-71
2021/04/20 10:38:52;;;;;;;33.28;18.33;;;;;;;13.38;68.45;96237.16;5058045;28;20208;-71
2021/04/20 10:41:24;;;;;;;31.85;16.77;;;;;;;13.18;67.39;96224.78;5058566;28;20207;-71
2021/04/20 10:43:52;;;;;;;31.73;18.02;;;;;;;12.85;71.90;96234.28;5058386;28;20533;-71
2021/04/20 10:46:24;;;;;;;33.33;17.80;;;;;;;13.11;69.71;96223.09;5057550;28;20200;-71
2021/04/20 10:48:52;;;;;;;33.35;18.05;;;;;;;13.25;69.03;96217.72;5058068;28;20259;-72
2021/04/20 10:51:28;;;;;;;33.78;17.55;;;;;;;13.39;67.67;96220.25;5058117;28;20589;-71
2021/04/20 10:53:56;;;;;;;29.63;16.83;;;;;;;13.04;68.96;96220.41;5058198;28;20206;-71
2021/04/20 10:56:23;;;;;;;33.80;17.45;;;;;;;13.20;69.64;96216.66;5057016;28;20201;-75
2021/04/20 10:58:54;;;;;;;32.22;16.92;;;;;;;13.23;67.20;96221.59;5057737;28;20713;-74
2021/04/20 11:01:23;;;;;;;33.00;16.92;;;;;;;13.23;66.83;96218.94;5058759;28;20633;-74
2021/04/20 11:03:52;;;;;;;36.58;16.77;;;;;;;13.27;67.11;96214.88;5057574;28;20621;-72
2021/04/20 11:06:56;;;;;;;36.80;17.60;;;;;;;13.30;67.45;96217.13;5057073;28;20205;-73
2021/04/20 11:09:28;;;;;;;32.58;17.08;;;;;;;13.42;67.21;96221.69;5057153;28;20219;-73
2021/04/20 11:11:54;;;;;;;32.90;16.90;;;;;;;13.30;66.73;96212.69;5057821;28;20956;-72
2021/04/20 11:14:36;;;;;;;33.65;16.77;;;;;;;13.22;68.14;96209.34;5057358;28;20232;-75
2021/04/20 11:17:03;;;;;;;33.38;17.85;;;;;;;13.38;67.69;96202.75;5056422;28;20603;-72
2021/04/20 11:19:32;;;;;;;31.35;16.70;;;;;;;13.61;66.30;96200.63;5057531;28;20250;-75
2021/04/20 11:22:00;;;;;;;29.98;16.23;;;;;;;13.35;68.21;96198.84;5057120;28;20209;-73
2021/04/20 11:24:29;;;;;;;28.65;15.68;;;;;;;13.46;68.00;96197.28;5057224;28;20214;-73
2021/04/20 11:27:00;;;;;;;29.58;16.73;;;;;;;14.20;65.16;96199.84;5056761;28;20231;-75
2021/04/20 11:29:35;;;;;;;31.63;16.65;;;;;;;14.94;63.77;96196.94;5057156;28;20608;-72